地図

経路データ

SID SEASON NUMBER BASIN SUBBASIN NAME ISO_TIME NATURE LAT LON WMO_WIND WMO_PRES WMO_AGENCY TRACK_TYPE DIST2LAND LANDFALL IFLAG USA_AGENCY USA_ATCF_ID USA_LAT USA_LON USA_RECORD USA_STATUS USA_WIND USA_PRES USA_SSHS USA_R34_NE USA_R34_SE USA_R34_SW USA_R34_NW USA_R50_NE USA_R50_SE USA_R50_SW USA_R50_NW USA_R64_NE USA_R64_SE USA_R64_SW USA_R64_NW USA_POCI USA_ROCI USA_RMW USA_EYE TOKYO_LAT TOKYO_LON TOKYO_GRADE TOKYO_WIND TOKYO_PRES TOKYO_R50_DIR TOKYO_R50_LONG TOKYO_R50_SHORT TOKYO_R30_DIR TOKYO_R30_LONG TOKYO_R30_SHORT TOKYO_LAND CMA_LAT CMA_LON CMA_CAT CMA_WIND CMA_PRES HKO_LAT HKO_LON HKO_CAT HKO_WIND HKO_PRES NEWDELHI_LAT NEWDELHI_LON NEWDELHI_GRADE NEWDELHI_WIND NEWDELHI_PRES NEWDELHI_CI NEWDELHI_DP NEWDELHI_POCI REUNION_LAT REUNION_LON REUNION_TYPE REUNION_WIND REUNION_PRES REUNION_TNUM REUNION_CI REUNION_RMW REUNION_R34_NE REUNION_R34_SE REUNION_R34_SW REUNION_R34_NW REUNION_R50_NE REUNION_R50_SE REUNION_R50_SW REUNION_R50_NW REUNION_R64_NE REUNION_R64_SE REUNION_R64_SW REUNION_R64_NW BOM_LAT BOM_LON BOM_TYPE BOM_WIND BOM_PRES BOM_TNUM BOM_CI BOM_RMW BOM_R34_NE BOM_R34_SE BOM_R34_SW BOM_R34_NW BOM_R50_NE BOM_R50_SE BOM_R50_SW BOM_R50_NW BOM_R64_NE BOM_R64_SE BOM_R64_SW BOM_R64_NW BOM_ROCI BOM_POCI BOM_EYE BOM_POS_METHOD BOM_PRES_METHOD NADI_LAT NADI_LON NADI_CAT NADI_WIND NADI_PRES WELLINGTON_LAT WELLINGTON_LON WELLINGTON_WIND WELLINGTON_PRES DS824_LAT DS824_LON DS824_STAGE DS824_WIND DS824_PRES TD9636_LAT TD9636_LON TD9636_STAGE TD9636_WIND TD9636_PRES TD9635_LAT TD9635_LON TD9635_WIND TD9635_PRES TD9635_ROCI NEUMANN_LAT NEUMANN_LON NEUMANN_CLASS NEUMANN_WIND NEUMANN_PRES MLC_LAT MLC_LON MLC_CLASS MLC_WIND MLC_PRES USA_GUST BOM_GUST BOM_GUST_PER REUNION_GUST REUNION_GUST_PER USA_SEAHGT USA_SEARAD_NE USA_SEARAD_SE USA_SEARAD_SW USA_SEARAD_NW STORM_SPEED STORM_DIR
1966362S21072 1967 125 SI MM NOT_NAMED 1966-12-28 04:00:00 NR -21.1430 71.9515 spur-split 1479 1479 ______________ -1 12 159
1966362S21072 1967 125 SI MM NOT_NAMED 1966-12-28 06:00:00 TS -21.5000 72.1000 reunion spur-split 1490 1490 _____O________ -1 -21.5000 72.1000 3 9.90000 12 163
1966362S21072 1967 125 SI MM NOT_NAMED 1966-12-28 09:00:00 TS -22.1050 72.2597 spur-split 1515 1515 _____P________ -1 -22.1251 72.2373 3 13 172
1966362S21072 1967 125 SI MM NOT_NAMED 1966-12-28 12:00:00 NR -22.8000 72.3000 reunion spur-split 1524 1524 _____O________ -1 -22.8000 72.3000 99 9.90000 15 182
1966362S21072 1967 125 SI MM NOT_NAMED 1966-12-28 15:00:00 NR -23.5624 72.2246 spur-split 1529 1529 _____P________ -1 -23.5624 72.2246 99 16 187
1966362S21072 1967 125 SI MM NOT_NAMED 1966-12-28 16:00:00 NR -23.8344 72.1662 spur-split 1533 1525 _____P________ -1 -23.8344 72.1662 99 17 194
1966362S21072 1967 125 SI MM NOT_NAMED 1966-12-28 18:00:00 NR -24.4000 72.0000 reunion spur-split 1529 1515 _____O________ -1 -24.4000 72.0000 99 9.90000 19 200
1966362S21072 1967 125 SI MM NOT_NAMED 1966-12-28 21:00:00 NR -25.2854 71.5938 spur-split 1519 1509 _____P________ -1 -25.2854 71.5938 99 19 202
1966362S21072 1967 125 SI MM NOT_NAMED 1966-12-29 00:00:00 NR -26.2000 71.2000 reunion spur-split 1516 1515 _____O________ -1 -26.2000 71.2000 99 9.90000 19 195
1966362S21072 1967 125 SI MM NOT_NAMED 1966-12-29 03:00:00 NR -27.1148 71.0319 spur-split 1538 1543 _____P________ -1 -27.1148 71.0319 99 19 188
1966362S21072 1967 125 SI MM NOT_NAMED 1966-12-29 04:00:00 NR -27.4156 71.0099 spur-split 1553 1553 _____P________ -1 -27.4156 71.0099 99 18 183
1966362S21072 1967 125 SI MM NOT_NAMED 1966-12-29 06:00:00 ET -28.0000 71.0000 reunion spur-split 1585 1585 _____O________ -1 -28.0000 71.0000 5 9.90000 17 181
1966362S21072 1967 125 SI MM NOT_NAMED 1966-12-29 09:00:00 ET -28.8298 70.9903 spur-split 1630 1636 _____P________ -1 -28.8298 70.9903 5 16 177
1966362S21072 1967 125 SI MM NOT_NAMED 1966-12-29 12:00:00 NR -29.6000 71.1000 reunion spur-split 1686 1686 _____O________ -1 -29.6000 71.1000 99 9.90000 15 168
1966362S21072 1967 125 SI MM NOT_NAMED 1966-12-29 15:00:00 NR -30.3301 71.3694 spur-split 1754 1761 _____P________ -1 -30.3301 71.3694 99 15 161
1966362S21072 1967 125 SI MM NOT_NAMED 1966-12-29 16:00:00 NR -30.5601 71.4803 spur-split 1782 1782 _____P________ -1 -30.5601 71.4803 99 15 157
1966362S21072 1967 125 SI MM NOT_NAMED 1966-12-29 18:00:00 NR -31.0000 71.7000 reunion spur-split 1824 1824 _____O________ -1 -31.0000 71.7000 99 9.90000 13 159
1966362S21072 1967 125 SI MM NOT_NAMED 1966-12-29 21:00:00 NR -31.5922 71.9363 spur-split 1879 1866 _____P________ -1 -31.5922 71.9363 99 13 160
1966362S21072 1967 125 SI MM NOT_NAMED 1966-12-30 00:00:00 NR -32.2000 72.2000 reunion spur-split 1866 1792 _____O________ -1 -32.2000 72.2000 99 9.90000 14 158
1966362S21072 1967 125 SI MM NOT_NAMED 1966-12-30 03:00:00 NR -32.9155 72.5653 spur-split 1794 1773 _____P________ -1 -32.9155 72.5653 99 16 156
1966362S21072 1967 125 SI MM NOT_NAMED 1966-12-30 04:00:00 NR -33.1728 72.7054 spur-split 1762 1711 _____P________ -1 -33.1728 72.7054 99 17 155
1966362S21072 1967 125 SI MM NOT_NAMED 1966-12-30 06:00:00 ET -33.7000 73.0000 reunion spur-split 1711 _____O________ -1 -33.7000 73.0000 5 9.90000 17 155

IBTrACS Databaseについて

本データベースは、米国NOAAが公開する1842年以降の世界の熱帯低気圧のベストトラックデータアーカイブInternational Best Track Archive for Climate Stewardship (IBTrACS)を、ウェブで閲覧しやすい形式に変換したものです。

最終更新日:2021-12-06